Jersey City, NJ (07399)

9:40 PM EST on January 25, 2015 (GMT -0500)
Near Red Bull Arena | Change Station
CLOSE
Current Station
Personal Weather Station
Location: Harrison, NJ
Elevation: 23 ft
Nearby Weather Stations

Elev 23 ft 40.74 °N, 74.15 °W | Updated 11 minutes ago

Overcast
Overcast
32.0 °F
Feels Like 32 °F
N
0.0
Wind Variable Wind from ESE
Gusts 4.0 mph

Today
High -- | Low -- °F
--% Chance of Precip.
Yesterday
High -- | Low -- °F
Precip. -- in
7:12 AM 5:05 PM
Waxing Crescent, 38% visible
Pressure 29.96 in
Visibility 10.0 miles
Clouds Mostly Cloudy 5000 ft
Mostly Cloudy 8000 ft
Overcast 15000 ft
Windchill 32 °F
Dew Point 13 °F
Humidity 46%
Rainfall 0.09 in
Snow Depth Not available.
UV 0 out of 12
Pollen .10 out of 12
Air Quality Not available.
Flu Activity Not available.
METAR KEWR 260151Z 36010KT 10SM BKN050 BKN080 OVC150 00/M11 A2996 RMK AO2 SLP145 T00001106 $

More Conditions Fewer Conditions

Pressure 29.96 in
Visibility 10.0 miles
Clouds Mostly Cloudy 5000 ft
Mostly Cloudy 8000 ft
Overcast 15000 ft
Windchill 32 °F
Dew Point 13 °F
Humidity 46%
Rainfall 0.09 in
Snow Depth Not available.
UV 0 out of 12
Pollen .10 out of 12
Air Quality Not available.
Flu Activity Not available.
METAR KEWR 260151Z 36010KT 10SM BKN050 BKN080 OVC150 00/M11 A2996 RMK AO2 SLP145 T00001106 $

More Conditions Fewer Conditions

10-Day Weather Forecast

Almanac

Astronomy

Jan. 25, 2015 Rise Set
Actual Time
Civil Twilight
Nautical Twilight
Astronomical Twilight
Moon
Length of Visible Light
Length of Day
Tomorrow will be .
, % of the Moon is Illuminated

Today's Extremes

State Highs State Lows

Community

WunderPhotos

Upload Photos

1,790,085 photos uploaded!

WunderBlogs® & News

Nearby

Air Quality

  Air Quality AQ Index Pollutant
Not available.

Snow Depth

Station Depth Elevation

Earthquake Activity

City Distance Mag. Time & Date
Minimum magnitude displayed is 2.5.

Coastal Water Temperatures

Place Temperature

Nearby Weather Stations